Data for 10/28/2007

Time Sea-Level Adjusted Pressure Absolute Pressure Temperature Relative Humidity Dew Point   
(mb) (inHg) (mb) (inHg) (C) (F) (%) (C) (F)
00:05 1026 30.3 855 25.25 1.5 34.8 43 -9.7 14.6
00:10 1026 30.3 855 25.25 1.1 34 44 -9.8 14.4
00:15 1026 30.3 855 25.25 1.2 34.2 43 -10.1 13.8
00:20 1026 30.3 855 25.25 1.5 34.7 41 -10.4 13.3
00:25 1026 30.3 856 25.28 1.8 35.2 39 -10.6 12.9
00:30 1026 30.3 855 25.25 2.1 35.8 38 -10.8 12.6
00:35 1026 30.3 855 25.25 2.6 36.6 37 -10.8 12.5
00:40 1026 30.3 856 25.28 3.1 37.5 33 -11.5 11.2
00:45 1026 30.3 856 25.28 3.7 38.6 32 -11.5 11.3
00:50 1026 30.3 855 25.25 3.7 38.7 33 -11.1 12
00:55 1026 30.3 855 25.25 3.3 38 33 -11.4 11.5
01:00 1026 30.3 856 25.28 3.5 38.3 34 -11.1 12.1
01:05 1026 30.3 856 25.28 3.7 38.7 34 -10.9 12.4
01:10 1026 30.3 856 25.28 3.7 38.6 35 -10.3 13.4
01:15 1027 30.33 856 25.28 3.4 38.2 34 -10.9 12.5
01:20 1027 30.33 856 25.28 3.7 38.6 35 -10.6 13
01:25 1027 30.33 856 25.28 3.2 37.8 38 -9.7 14.6
01:30 1027 30.33 856 25.28 2.8 37 39 -10 14
01:35 1027 30.33 856 25.28 2.7 36.8 35 -11.2 11.9
01:40 1027 30.33 856 25.28 3 37.4 40 -9.3 15.3
01:45 1027 30.33 856 25.28 2.9 37.2 40 -9.6 14.7
01:50 1027 30.33 856 25.28 3.1 37.6 41 -8.9 16
01:55 1027 30.33 856 25.28 2.4 36.4 46 -8 17.7
02:00 1027 30.33 856 25.28 1.9 35.5 46 -8.4 16.8
02:05 1027 30.33 856 25.28 1.6 35 47 -8.5 16.7
02:10 1027 30.33 856 25.28 1.6 34.8 43 -9.7 14.5
02:15 1027 30.33 856 25.28 2.2 36 42 -9.2 15.4
02:20 1027 30.33 856 25.28 2.6 36.7 43 -8.9 16
02:25 1027 30.33 856 25.28 2.3 36.1 43 -9 15.8
02:30 1027 30.33 856 25.28 2 35.6 43 -9.2 15.4
02:35 1027 30.33 856 25.28 2.1 35.8 42 -9.4 15.1
02:40 1027 30.33 856 25.28 2.2 36 40 -10.1 13.7
02:45 1027 30.33 856 25.28 2.8 37 39 -9.9 14.2
02:50 1027 30.33 856 25.28 2.8 37.1 41 -9.3 15.3
02:55 1027 30.33 856 25.28 2.8 37 36 -10.9 12.4
03:00 1027 30.33 856 25.28 3.2 37.7 38 -10 14.1
03:05 1027 30.33 856 25.28 3.2 37.7 40 -9 15.8
03:10 1027 30.33 856 25.28 2.9 37.3 39 -9.6 14.7
03:15 1027 30.33 856 25.28 2.8 37 40 -9.7 14.6
03:20 1027 30.33 856 25.28 2.7 36.8 39 -9.9 14.2
03:25 1026 30.3 856 25.28 3 37.4 37 -10.4 13.4
03:30 1026 30.3 856 25.28 3.5 38.4 35 -10.5 13.2
03:35 1026 30.3 856 25.28 4 39.3 35 -10.3 13.5
03:40 1026 30.3 856 25.28 4 39.1 38 -9.3 15.3
03:45 1026 30.3 856 25.28 3.5 38.3 38 -9.6 14.7
03:50 1026 30.3 855 25.25 3.4 38.2 39 -9.4 15.1
03:55 1026 30.3 855 25.25 3.4 38.1 39 -9.4 15.1
04:00 1026 30.3 855 25.25 3.5 38.3 37 -9.9 14.2
04:05 1026 30.3 855 25.25 3.8 38.8 37 -9.5 15
04:10 1026 30.3 855 25.25 3.7 38.7 38 -9.4 15.1
04:15 1026 30.3 855 25.25 3.6 38.6 37 -9.7 14.6
04:20 1026 30.3 855 25.25 3.8 38.8 37 -9.6 14.8
04:25 1026 30.3 855 25.25 3.9 39 36 -9.8 14.3
04:30 1026 30.3 855 25.25 4 39.3 37 -9.5 15
04:35 1026 30.3 855 25.25 4 39.2 38 -9.3 15.3
04:40 1026 30.3 855 25.25 3.9 39.1 38 -9 15.7
04:45 1026 30.3 855 25.25 3.9 39.1 38 -9.1 15.6
04:50 1026 30.3 855 25.25 4 39.3 37 -9.3 15.2
04:55 1026 30.3 855 25.25 4.3 39.7 36 -9.6 14.7
05:00 1026 30.3 855 25.25 4.4 39.9 35 -9.9 14.2
05:05 1026 30.3 855 25.25 4.9 40.9 34 -9.9 14.3
05:10 1026 30.3 855 25.25 5.2 41.4 33 -9.8 14.4
05:15 1026 30.3 855 25.25 5.1 41.3 34 -9.7 14.6
05:20 1026 30.3 855 25.25 5.2 41.3 34 -9.5 14.8
05:25 1026 30.3 855 25.25 5 41 35 -9.2 15.5
05:30 1026 30.3 855 25.25 4.6 40.3 38 -8.4 16.9
05:35 1026 30.3 855 25.25 4.4 40 37 -9.1 15.6
05:40 1026 30.3 856 25.28 4.5 40.1 36 -9.3 15.3
05:45 1026 30.3 856 25.28 4.5 40 36 -9.4 15
05:50 1026 30.3 856 25.28 4.5 40.1 37 -8.9 16
05:55 1026 30.3 856 25.28 4.4 39.9 38 -8.8 16.2
06:00 1026 30.3 856 25.28 4.4 39.8 38 -8.7 16.3
06:05 1027 30.33 856 25.28 4.5 40 38 -8.7 16.3
06:10 1027 30.33 856 25.28 4.8 40.7 38 -8.5 16.8
06:15 1027 30.33 856 25.28 4.5 40.1 40 -8 17.7
06:20 1027 30.33 856 25.28 4.1 39.4 42 -7.5 18.4
06:25 1027 30.33 856 25.28 3.6 38.6 42 -8.3 17.1
06:30 1027 30.33 856 25.28 4.2 39.6 39 -8.5 16.8
06:35 1027 30.33 856 25.28 4.9 40.8 38 -8.5 16.8
06:40 1027 30.33 856 25.28 4.8 40.6 40 -7.6 18.3
06:45 1027 30.33 856 25.28 4.3 39.7 40 -8.3 17.1
06:50 1027 30.33 856 25.28 4.4 39.9 38 -8.6 16.5
06:55 1027 30.33 856 25.28 4.5 40.1 42 -7.2 19
07:00 1027 30.33 856 25.28 4.1 39.3 38 -9 15.9
07:05 1027 30.33 856 25.28 5.1 41.2 35 -9.3 15.3
07:10 1027 30.33 856 25.28 5.4 41.8 36 -8.6 16.5
07:15 1027 30.33 856 25.28 5.3 41.5 37 -8.3 17.1
07:20 1027 30.33 856 25.28 5.4 41.7 35 -8.8 16.1
07:25 1027 30.33 856 25.28 5.7 42.3 36 -8.3 17
07:30 1027 30.33 856 25.28 5.4 41.7 43 -6.2 20.9
07:35 1027 30.33 856 25.28 4.2 39.5 46 -6.5 20.3
07:40 1027 30.33 856 25.28 3.8 38.9 45 -7.2 19.1
07:45 1027 30.33 856 25.28 4.1 39.3 44 -7.2 19
07:50 1027 30.33 856 25.28 4.1 39.5 44 -7.2 19.1
07:55 1027 30.33 856 25.28 4.2 39.6 44 -7.1 19.2
08:00 1027 30.33 856 25.28 4.3 39.8 45 -6.5 20.3
08:05 1027 30.33 856 25.28 4.1 39.3 46 -6.5 20.2
08:10 1027 30.33 856 25.28 4 39.3 45 -6.7 19.9
08:15 1027 30.33 856 25.28 3.9 39 45 -7.1 19.3
08:20 1027 30.33 856 25.28 4.2 39.6 43 -7.2 19.1
08:25 1027 30.33 856 25.28 4.4 40 43 -7.1 19.1
08:30 1027 30.33 856 25.28 4.7 40.5 41 -7.6 18.4
08:35 1027 30.33 856 25.28 5.2 41.3 38 -7.9 17.7
08:40 1027 30.33 856 25.28 5.7 42.2 38 -7.6 18.4
08:45 1027 30.33 856 25.28 5.6 42.2 37 -7.9 17.7
08:50 1027 30.33 856 25.28 6 42.8 37 -7.6 18.3
08:55 1027 30.33 856 25.28 6.2 43.1 37 -7.4 18.6
09:00 1027 30.33 856 25.28 6.1 42.9 38 -7.1 19.2
09:05 1027 30.33 856 25.28 6 42.8 39 -7.1 19.3
09:10 1027 30.33 856 25.28 6.1 43 37 -7.5 18.5
09:15 1027 30.33 856 25.28 6.5 43.7 36 -7.6 18.2
09:20 1027 30.33 857 25.31 6.9 44.3 35 -7.4 18.7
09:25 1027 30.33 857 25.31 6.9 44.4 37 -6.9 19.6
09:30 1027 30.33 857 25.31 6.6 43.8 39 -6.4 20.4
09:35 1027 30.33 857 25.31 6.5 43.6 40 -6.3 20.6
09:40 1028 30.36 857 25.31 6.4 43.5 41 -5.8 21.6
09:45 1028 30.36 857 25.31 6.4 43.5 40 -6.3 20.7
09:50 1028 30.36 857 25.31 6.9 44.3 39 -6.2 20.8
09:55 1028 30.36 857 25.31 7.3 45.2 37 -6.4 20.5
10:00 1028 30.36 857 25.31 7.6 45.7 37 -6 21.2
10:05 1028 30.36 857 25.31 8 46.5 40 -4.7 23.5
10:10 1028 30.36 857 25.31 8 46.4 42 -4.2 24.4
10:15 1028 30.36 857 25.31 7.8 46.1 40 -4.9 23.2
10:20 1028 30.36 857 25.31 8.3 46.9 37 -5.5 22.1
10:25 1028 30.36 857 25.31 9.2 48.5 35 -5.4 22.3
10:30 1028 30.36 857 25.31 9.9 49.9 32 -6 21.1
10:35 1028 30.36 857 25.31 9.9 49.9 32 -6 21.2
10:40 1028 30.36 857 25.31 10.6 51 29 -6.5 20.3
10:45 1028 30.36 857 25.31 11.2 52.1 29 -6.2 20.8
10:50 1028 30.36 857 25.31 11.6 52.9 28 -6.2 20.9
10:55 1028 30.36 857 25.31 12 53.6 28 -5.9 21.3
11:00 1028 30.36 857 25.31 12.5 54.6 25 -6.7 19.9
11:05 1028 30.36 857 25.31 13.1 55.5 25 -6.4 20.4
11:10 1028 30.36 857 25.31 13.1 55.5 25 -6.4 20.5
11:15 1027 30.33 857 25.31 12.6 54.6 28 -5.5 22.1
11:20 1027 30.33 857 25.31 11.9 53.4 28 -6.1 21.1
11:25 1027 30.33 857 25.31 12.5 54.5 27 -6 21.2
11:30 1027 30.33 857 25.31 12.7 54.8 27 -5.8 21.6
11:35 1027 30.33 857 25.31 13.2 55.7 26 -5.8 21.5
11:40 1027 30.33 857 25.31 13.5 56.3 27 -5 23
11:45 1027 30.33 856 25.28 13.3 55.9 26 -5.8 21.6
11:50 1027 30.33 856 25.28 13.8 56.9 27 -4.9 23.2
11:55 1027 30.33 856 25.28 14.1 57.4 27 -4.7 23.5
12:00 1027 30.33 856 25.28 14.4 58 26 -4.8 23.4
12:05 1027 30.33 856 25.28 13.7 56.6 28 -4.5 23.8
12:10 1027 30.33 856 25.28 13.5 56.3 27 -5.2 22.7
12:15 1027 30.33 856 25.28 13.9 57 28 -4.4 24.1
12:20 1027 30.33 856 25.28 13.8 56.9 29 -3.7 25.3
12:25 1027 30.33 856 25.28 13.6 56.5 29 -4.1 24.6
12:30 1027 30.33 856 25.28 13.6 56.6 28 -4.4 24.1
12:35 1027 30.33 856 25.28 13.5 56.3 29 -4.3 24.3
12:40 1027 30.33 856 25.28 14.4 57.9 25 -5.1 22.8
12:45 1027 30.33 856 25.28 14.1 57.3 27 -4.4 24.1
12:50 1027 30.33 856 25.28 14.1 57.3 27 -4.7 23.6
12:55 1027 30.33 856 25.28 14.6 58.3 26 -4.6 23.8
13:00 1027 30.33 856 25.28 15.4 59.7 25 -4.6 23.8
13:05 1027 30.33 856 25.28 15.5 60 24 -4.8 23.4
13:10 1027 30.33 856 25.28 16 60.7 24 -4.5 23.9
13:15 1027 30.33 856 25.28 16.2 61.1 23 -4.6 23.7
13:20 1026 30.3 856 25.28 16.2 61.1 25 -4 24.9
13:25 1026 30.3 856 25.28 16.8 62.2 23 -4.2 24.4
13:30 1026 30.3 856 25.28 16.6 61.8 24 -4 24.8
13:35 1026 30.3 856 25.28 17.4 63.3 22 -4.3 24.3
13:40 1026 30.3 855 25.25 17.5 63.5 21 -4.8 23.4
13:45 1026 30.3 855 25.25 17.6 63.6 23 -3.9 25
13:50 1026 30.3 855 25.25 18 64.3 22 -4 24.7
13:55 1026 30.3 855 25.25 18.8 65.8 21 -3.8 25.2
14:00 1026 30.3 855 25.25 18.7 65.7 21 -4 24.9
14:05 1026 30.3 855 25.25 18.9 66.1 20 -4.1 24.6
14:10 1026 30.3 855 25.25 19.3 66.7 21 -3.8 25.2
14:15 1026 30.3 855 25.25 18.9 66 22 -3 26.6
14:20 1026 30.3 855 25.25 18.7 65.7 22 -3.3 26.1
14:25 1026 30.3 855 25.25 19.1 66.3 22 -3.1 26.5
14:30 1026 30.3 855 25.25 18.8 65.8 21 -3.6 25.6
14:35 1026 30.3 855 25.25 19 66.1 20 -4.2 24.5
14:40 1026 30.3 855 25.25 19.8 67.6 19 -4.2 24.5
14:45 1026 30.3 855 25.25 19.5 67.2 23 -2.1 28.2
14:50 1026 30.3 855 25.25 19.2 66.5 21 -3.7 25.3
14:55 1026 30.3 855 25.25 20.1 68.2 19 -3.9 24.9
15:00 1026 30.3 855 25.25 20.4 68.7 19 -3.7 25.3
15:05 1026 30.3 855 25.25 20.6 69.1 20 -3.2 26.3
15:10 1026 30.3 855 25.25 20.9 69.6 19 -3.7 25.4
15:15 1025 30.27 855 25.25 21.1 70 19 -3.2 26.2
15:20 1025 30.27 855 25.25 20.6 69.1 19 -3.5 25.7
15:25 1025 30.27 855 25.25 21.2 70.1 18 -4.2 24.4
15:30 1025 30.27 855 25.25 20.1 68.2 19 -3.9 25
15:35 1025 30.27 855 25.25 19.6 67.2 20 -4.1 24.7
15:40 1025 30.27 855 25.25 19.7 67.5 19 -4.6 23.7
15:45 1025 30.27 855 25.25 20 68 18 -5 23
15:50 1025 30.27 854 25.22 20.1 68.1 17 -5.6 21.8
15:55 1025 30.27 854 25.22 20.5 68.8 18 -4.8 23.4
16:00 1025 30.27 854 25.22 19.6 67.2 18 -5.5 22.1
16:05 1025 30.27 854 25.22 19.4 67 18 -5.4 22.2
16:10 1025 30.27 854 25.22 19.6 67.4 17 -5.9 21.4
16:15 1025 30.27 854 25.22 20.3 68.5 19 -4.1 24.6
16:20 1025 30.27 854 25.22 20.6 69.2 17 -5.1 22.8
16:25 1025 30.27 854 25.22 21 69.7 17 -4.6 23.6
16:30 1025 30.27 854 25.22 21.1 70 16 -5.8 21.5
16:35 1025 30.27 854 25.22 21.3 70.4 14 -7.3 18.8
16:40 1025 30.27 854 25.22 21 69.8 14 -7.7 18.1
16:45 1025 30.27 854 25.22 20.8 69.4 13 -8.4 17
16:50 1025 30.27 854 25.22 20.6 69.1 14 -8 17.6
16:55 1025 30.27 854 25.22 20.3 68.5 14 -7.9 17.8
17:00 1025 30.27 854 25.22 20.5 68.8 14 -7.8 18
17:05 1025 30.27 854 25.22 20.7 69.2 14 -7.4 18.6
17:10 1025 30.27 854 25.22 20.7 69.2 14 -8 17.6
17:15 1025 30.27 854 25.22 20.6 69 14 -7.8 17.9
17:20 1025 30.27 854 25.22 20.6 69 14 -7.6 18.4
17:25 1025 30.27 854 25.22 20.6 69 14 -7.5 18.5
17:30 1025 30.27 854 25.22 20.6 69 15 -7.3 18.9
17:35 1025 30.27 854 25.22 20.3 68.6 14 -7.5 18.5
17:40 1025 30.27 854 25.22 20.2 68.4 15 -7.5 18.5
17:45 1025 30.27 854 25.22 20.2 68.3 14 -7.8 18
17:50 1025 30.27 854 25.22 20.1 68.1 14 -7.8 18
17:55 1025 30.27 854 25.22 19.8 67.6 15 -7.7 18.1
18:00 1025 30.27 854 25.22 19.3 66.7 15 -7.9 17.8
18:05 1025 30.27 854 25.22 18.9 65.9 15 -8.1 17.4
18:10 1025 30.27 854 25.22 18.3 64.9 16 -7.8 17.9
18:15 1025 30.27 854 25.22 17.9 64.1 17 -7.7 18.1
18:20 1025 30.27 854 25.22 17 62.7 23 -4.4 24.1
18:25 1025 30.27 854 25.22 15.4 59.7 25 -4.2 24.4
18:30 1025 30.27 854 25.22 14.8 58.6 25 -5 23
18:35 1025 30.27 854 25.22 14.3 57.7 26 -4.7 23.6
18:40 1025 30.27 854 25.22 13.9 57 23 -6.7 19.9
18:45 1025 30.27 854 25.22 14.3 57.8 22 -6.9 19.6
18:50 1025 30.27 854 25.22 14 57.1 23 -6.5 20.3
18:55 1025 30.27 854 25.22 13.4 56.2 26 -5.8 21.6
19:00 1025 30.27 854 25.22 13.1 55.5 27 -5.5 22.1
19:05 1025 30.27 854 25.22 12.7 54.9 28 -5.1 22.8
19:10 1025 30.27 854 25.22 12.2 54 28 -5.5 22
19:15 1025 30.27 854 25.22 12.2 53.9 29 -5.3 22.4
19:20 1025 30.27 854 25.22 11.7 53 30 -5.4 22.3
19:25 1025 30.27 854 25.22 11.8 53.2 29 -5.6 21.9
19:30 1025 30.27 854 25.22 12 53.5 29 -5.3 22.5
19:35 1025 30.27 854 25.22 11.8 53.2 30 -5.4 22.3
19:40 1025 30.27 854 25.22 11.8 53.3 29 -5.4 22.2
19:45 1025 30.27 854 25.22 11.7 53 29 -5.8 21.6
19:50 1025 30.27 854 25.22 11.5 52.8 30 -5.4 22.2
19:55 1025 30.27 854 25.22 11.5 52.7 29 -5.7 21.7
20:00 1025 30.27 854 25.22 11.7 53 29 -5.5 22
20:05 1025 30.27 854 25.22 11.7 53.1 28 -6.1 21
20:10 1025 30.27 854 25.22 12.2 53.9 28 -5.8 21.5
20:15 1025 30.27 854 25.22 12.3 54.1 29 -5.1 22.8
20:20 1025 30.27 854 25.22 11.7 53.1 31 -4.9 23.2
20:25 1025 30.27 854 25.22 11.4 52.6 31 -5.2 22.7
20:30 1025 30.27 854 25.22 11.4 52.5 31 -4.9 23.1
20:35 1025 30.27 854 25.22 11.8 53.2 31 -5 23
20:40 1025 30.27 854 25.22 11.8 53.3 30 -5.1 22.8
20:45 1025 30.27 854 25.22 11.7 53.1 31 -4.9 23.1
20:50 1025 30.27 854 25.22 11.8 53.2 32 -4.4 24.1
20:55 1025 30.27 854 25.22 12 53.5 31 -4.4 24.1
21:00 1025 30.27 854 25.22 12.1 53.8 31 -4.7 23.6
21:05 1025 30.27 854 25.22 12.3 54.1 30 -4.6 23.7
21:10 1025 30.27 854 25.22 12.1 53.8 31 -4.5 23.8
21:15 1025 30.27 854 25.22 11.8 53.3 31 -4.6 23.7
21:20 1025 30.27 854 25.22 11.9 53.5 32 -4.1 24.7
21:25 1025 30.27 854 25.22 11.7 53 32 -4.5 23.9
21:30 1025 30.27 854 25.22 11.3 52.3 33 -4.2 24.4
21:35 1025 30.27 854 25.22 11.1 51.9 34 -4.2 24.5
21:40 1025 30.27 854 25.22 11.2 52.1 33 -4.4 24.2
21:45 1025 30.27 854 25.22 11.1 52.1 34 -4.1 24.6
21:50 1025 30.27 854 25.22 11 51.7 35 -4 24.8
21:55 1025 30.27 854 25.22 10 50 35 -4.6 23.7
22:00 1025 30.27 854 25.22 10.6 51.1 32 -5.3 22.4
22:05 1025 30.27 854 25.22 11 51.7 34 -4.2 24.4
22:10 1025 30.27 854 25.22 10.1 50.1 35 -4.6 23.7
22:15 1025 30.27 854 25.22 10.1 50.2 35 -4.6 23.7
22:20 1025 30.27 855 25.25 10.1 50.1 35 -4.5 23.8
22:25 1025 30.27 855 25.25 9.9 49.9 35 -4.9 23.1
22:30 1025 30.27 855 25.25 10.3 50.5 34 -5.1 22.9
22:35 1025 30.27 854 25.22 10.5 50.9 33 -5 23
22:40 1025 30.27 854 25.22 10.8 51.4 32 -5 23
22:45 1025 30.27 854 25.22 10.9 51.6 33 -4.9 23.2
22:50 1025 30.27 854 25.22 10.9 51.5 33 -4.7 23.6
22:55 1025 30.27 854 25.22 10.6 51.1 34 -4.6 23.8
23:00 1025 30.27 854 25.22 10 49.9 36 -4.4 24.1
23:05 1025 30.27 854 25.22 9.2 48.6 38 -4.3 24.3
23:10 1025 30.27 854 25.22 9.1 48.3 37 -5 23
23:15 1025 30.27 854 25.22 9.5 49 35 -5.1 22.7
23:20 1025 30.27 854 25.22 9.8 49.6 35 -4.9 23.2
23:25 1025 30.27 854 25.22 9.6 49.2 37 -4.4 24.1
23:30 1025 30.27 854 25.22 9.1 48.4 36 -5.3 22.5
23:35 1025 30.27 854 25.22 9.4 48.9 35 -5.4 22.3
23:40 1025 30.27 854 25.22 9.6 49.2 35 -5.3 22.4
23:45 1025 30.27 854 25.22 9.5 49.1 35 -5.2 22.7
23:50 1025 30.27 854 25.22 9.3 48.7 37 -4.6 23.8
23:55 1025 30.27 854 25.22 8.8 47.8 38 -4.9 23.2
24:00 1025 30.27 854 25.22 8.7 47.6 37 -5.1 22.8